sensor_id;sensor_type;location;lat;lon;timestamp;pressure;altitude;pressure_sealevel;temperature;humidity
10852;BME280;5479;52.046;6.314;2023-03-14T00:01:31;98797.34;;;11.13;100.00
10852;BME280;5479;52.046;6.314;2023-03-14T00:03:59;98798.75;;;11.17;100.00
10852;BME280;5479;52.046;6.314;2023-03-14T00:06:27;98795.09;;;11.18;100.00
10852;BME280;5479;52.046;6.314;2023-03-14T00:08:55;98789.38;;;11.23;100.00
10852;BME280;5479;52.046;6.314;2023-03-14T00:11:23;98783.53;;;11.19;100.00
10852;BME280;5479;52.046;6.314;2023-03-14T00:13:51;98783.81;;;11.26;100.00
10852;BME280;5479;52.046;6.314;2023-03-14T00:16:20;98775.88;;;11.26;100.00
10852;BME280;5479;52.046;6.314;2023-03-14T00:18:49;98777.94;;;11.22;100.00
10852;BME280;5479;52.046;6.314;2023-03-14T00:21:19;98772.09;;;11.19;100.00
10852;BME280;5479;52.046;6.314;2023-03-14T00:23:47;98770.03;;;11.13;100.00
10852;BME280;5479;52.046;6.314;2023-03-14T00:26:17;98768.59;;;11.18;100.00
10852;BME280;5479;52.046;6.314;2023-03-14T00:28:45;98767.50;;;11.21;100.00
10852;BME280;5479;52.046;6.314;2023-03-14T00:31:15;98768.88;;;11.25;100.00
10852;BME280;5479;52.046;6.314;2023-03-14T00:33:44;98776.16;;;11.23;100.00
10852;BME280;5479;52.046;6.314;2023-03-14T00:36:15;98788.84;;;11.19;100.00
10852;BME280;5479;52.046;6.314;2023-03-14T00:38:45;98783.41;;;11.21;100.00
10852;BME280;5479;52.046;6.314;2023-03-14T00:41:15;98799.06;;;11.05;100.00
10852;BME280;5479;52.046;6.314;2023-03-14T00:43:43;98778.72;;;10.96;100.00
10852;BME280;5479;52.046;6.314;2023-03-14T00:46:12;98771.59;;;10.86;100.00
10852;BME280;5479;52.046;6.314;2023-03-14T00:48:40;98781.50;;;10.84;100.00
10852;BME280;5479;52.046;6.314;2023-03-14T00:51:08;98779.00;;;10.73;100.00
10852;BME280;5479;52.046;6.314;2023-03-14T00:53:39;98777.75;;;10.68;100.00
10852;BME280;5479;52.046;6.314;2023-03-14T00:56:09;98775.13;;;10.58;100.00
10852;BME280;5479;52.046;6.314;2023-03-14T00:58:37;98778.47;;;10.51;100.00
10852;BME280;5479;52.046;6.314;2023-03-14T01:01:07;98786.13;;;10.44;100.00
10852;BME280;5479;52.046;6.314;2023-03-14T01:03:36;98792.41;;;10.43;100.00
10852;BME280;5479;52.046;6.314;2023-03-14T01:06:09;98796.97;;;10.41;100.00
10852;BME280;5479;52.046;6.314;2023-03-14T01:08:39;98798.22;;;10.37;100.00
10852;BME280;5479;52.046;6.314;2023-03-14T01:11:08;98794.31;;;10.41;100.00
10852;BME280;5479;52.046;6.314;2023-03-14T01:13:36;98792.25;;;10.45;100.00
10852;BME280;5479;52.046;6.314;2023-03-14T01:16:06;98799.47;;;10.52;100.00
10852;BME280;5479;52.046;6.314;2023-03-14T01:18:35;98804.78;;;10.52;100.00
10852;BME280;5479;52.046;6.314;2023-03-14T01:21:04;98796.28;;;10.58;100.00
10852;BME280;5479;52.046;6.314;2023-03-14T01:23:36;98811.47;;;10.56;100.00
10852;BME280;5479;52.046;6.314;2023-03-14T01:26:08;98787.94;;;10.53;100.00
10852;BME280;5479;52.046;6.314;2023-03-14T01:28:36;98789.03;;;10.60;100.00
10852;BME280;5479;52.046;6.314;2023-03-14T01:31:04;98794.91;;;10.64;100.00
10852;BME280;5479;52.046;6.314;2023-03-14T01:33:32;98795.75;;;10.64;100.00
10852;BME280;5479;52.046;6.314;2023-03-14T01:36:01;98793.09;;;10.64;100.00
10852;BME280;5479;52.046;6.314;2023-03-14T01:38:29;98801.31;;;10.61;100.00
10852;BME280;5479;52.046;6.314;2023-03-14T01:40:58;98801.59;;;10.58;100.00
10852;BME280;5479;52.046;6.314;2023-03-14T01:43:28;98791.44;;;10.54;100.00
10852;BME280;5479;52.046;6.314;2023-03-14T01:49:09;98777.91;;;10.47;100.00
10852;BME280;5479;52.046;6.314;2023-03-14T01:51:42;98782.91;;;10.41;100.00
10852;BME280;5479;52.046;6.314;2023-03-14T01:54:16;98771.22;;;10.43;100.00
10852;BME280;5479;52.046;6.314;2023-03-14T01:56:49;98769.53;;;10.42;100.00
10852;BME280;5479;52.046;6.314;2023-03-14T01:59:20;98767.31;;;10.38;100.00
10852;BME280;5479;52.046;6.314;2023-03-14T02:01:50;98764.25;;;10.42;100.00
10852;BME280;5479;52.046;6.314;2023-03-14T02:04:19;98750.06;;;10.43;100.00
10852;BME280;5479;52.046;6.314;2023-03-14T02:06:52;98755.78;;;10.48;100.00
10852;BME280;5479;52.046;6.314;2023-03-14T02:09:22;98747.69;;;10.50;100.00
10852;BME280;5479;52.046;6.314;2023-03-14T02:11:50;98750.31;;;10.50;100.00
10852;BME280;5479;52.046;6.314;2023-03-14T02:14:28;98759.66;;;10.44;100.00
10852;BME280;5479;52.046;6.314;2023-03-14T02:16:58;98756.72;;;10.47;100.00
10852;BME280;5479;52.046;6.314;2023-03-14T02:19:39;98755.34;;;10.43;100.00
10852;BME280;5479;52.046;6.314;2023-03-14T02:22:12;98757.00;;;10.44;100.00
10852;BME280;5479;52.046;6.314;2023-03-14T02:24:44;98761.47;;;10.44;100.00
10852;BME280;5479;52.046;6.314;2023-03-14T02:27:16;98760.19;;;10.38;100.00
10852;BME280;5479;52.046;6.314;2023-03-14T02:29:48;98777.06;;;10.37;100.00
10852;BME280;5479;52.046;6.314;2023-03-14T02:32:17;98773.72;;;10.35;100.00
10852;BME280;5479;52.046;6.314;2023-03-14T02:34:49;98766.19;;;10.30;100.00
10852;BME280;5479;52.046;6.314;2023-03-14T02:37:21;98785.13;;;10.36;100.00
10852;BME280;5479;52.046;6.314;2023-03-14T02:39:51;98778.56;;;10.30;100.00
10852;BME280;5479;52.046;6.314;2023-03-14T02:42:20;98786.50;;;10.30;100.00
10852;BME280;5479;52.046;6.314;2023-03-14T02:44:52;98785.28;;;10.24;100.00
10852;BME280;5479;52.046;6.314;2023-03-14T02:47:24;98783.09;;;10.09;100.00
10852;BME280;5479;52.046;6.314;2023-03-14T02:50:01;98791.59;;;10.03;100.00
10852;BME280;5479;52.046;6.314;2023-03-14T02:52:30;98793.50;;;9.91;100.00
10852;BME280;5479;52.046;6.314;2023-03-14T02:54:58;98790.72;;;9.93;100.00
10852;BME280;5479;52.046;6.314;2023-03-14T02:57:27;98787.22;;;9.83;100.00
10852;BME280;5479;52.046;6.314;2023-03-14T02:59:58;98786.22;;;9.74;100.00
10852;BME280;5479;52.046;6.314;2023-03-14T03:02:26;98785.84;;;9.79;100.00
10852;BME280;5479;52.046;6.314;2023-03-14T03:04:54;98790.94;;;9.70;100.00
10852;BME280;5479;52.046;6.314;2023-03-14T03:07:22;98779.63;;;9.59;100.00
10852;BME280;5479;52.046;6.314;2023-03-14T03:09:49;98783.53;;;9.55;100.00
10852;BME280;5479;52.046;6.314;2023-03-14T03:12:17;98787.41;;;9.60;100.00
10852;BME280;5479;52.046;6.314;2023-03-14T03:14:47;98784.94;;;9.68;100.00
10852;BME280;5479;52.046;6.314;2023-03-14T03:17:15;98779.22;;;9.63;100.00
10852;BME280;5479;52.046;6.314;2023-03-14T03:19:43;98778.53;;;9.61;100.00
10852;BME280;5479;52.046;6.314;2023-03-14T03:22:11;98775.31;;;9.58;100.00
10852;BME280;5479;52.046;6.314;2023-03-14T03:24:39;98777.44;;;9.64;100.00
10852;BME280;5479;52.046;6.314;2023-03-14T03:27:06;98776.59;;;9.63;100.00
10852;BME280;5479;52.046;6.314;2023-03-14T03:29:34;98769.47;;;9.54;100.00
10852;BME280;5479;52.046;6.314;2023-03-14T03:32:04;98772.81;;;9.56;100.00
10852;BME280;5479;52.046;6.314;2023-03-14T03:34:32;98773.50;;;9.58;100.00
10852;BME280;5479;52.046;6.314;2023-03-14T03:37:00;98766.56;;;9.57;100.00
10852;BME280;5479;52.046;6.314;2023-03-14T03:39:28;98762.69;;;9.61;100.00
10852;BME280;5479;52.046;6.314;2023-03-14T03:41:55;98759.06;;;9.62;100.00
10852;BME280;5479;52.046;6.314;2023-03-14T03:44:23;98752.63;;;9.55;100.00
10852;BME280;5479;52.046;6.314;2023-03-14T03:46:51;98756.53;;;9.51;100.00
10852;BME280;5479;52.046;6.314;2023-03-14T03:49:21;98752.03;;;9.42;100.00
10852;BME280;5479;52.046;6.314;2023-03-14T03:51:48;98753.44;;;9.46;100.00
10852;BME280;5479;52.046;6.314;2023-03-14T03:54:16;98752.63;;;9.55;100.00
10852;BME280;5479;52.046;6.314;2023-03-14T03:56:44;98748.34;;;9.54;100.00
10852;BME280;5479;52.046;6.314;2023-03-14T03:59:12;98752.91;;;9.52;100.00
10852;BME280;5479;52.046;6.314;2023-03-14T04:01:40;98754.31;;;9.56;100.00
10852;BME280;5479;52.046;6.314;2023-03-14T04:04:08;98756.00;;;9.57;100.00
10852;BME280;5479;52.046;6.314;2023-03-14T04:06:38;98756.69;;;9.59;100.00
10852;BME280;5479;52.046;6.314;2023-03-14T04:09:07;98756.56;;;9.61;100.00
10852;BME280;5479;52.046;6.314;2023-03-14T04:11:35;98745.72;;;9.64;100.00
10852;BME280;5479;52.046;6.314;2023-03-14T04:14:03;98751.31;;;9.70;100.00
10852;BME280;5479;52.046;6.314;2023-03-14T04:16:31;98747.81;;;9.70;100.00
10852;BME280;5479;52.046;6.314;2023-03-14T04:18:59;98738.78;;;9.73;100.00
10852;BME280;5479;52.046;6.314;2023-03-14T04:21:28;98746.16;;;9.69;100.00
10852;BME280;5479;52.046;6.314;2023-03-14T04:23:57;98732.81;;;9.70;100.00
10852;BME280;5479;52.046;6.314;2023-03-14T04:26:25;98737.84;;;9.74;100.00
10852;BME280;5479;52.046;6.314;2023-03-14T04:28:53;98735.72;;;9.77;100.00
10852;BME280;5479;52.046;6.314;2023-03-14T04:31:22;98725.75;;;9.81;100.00
10852;BME280;5479;52.046;6.314;2023-03-14T04:33:50;98728.81;;;9.86;100.00
10852;BME280;5479;52.046;6.314;2023-03-14T04:36:19;98731.44;;;9.86;100.00
10852;BME280;5479;52.046;6.314;2023-03-14T04:38:47;98737.44;;;9.88;100.00
10852;BME280;5479;52.046;6.314;2023-03-14T04:41:16;98736.47;;;9.89;100.00
10852;BME280;5479;52.046;6.314;2023-03-14T04:43:44;98733.81;;;9.89;100.00
10852;BME280;5479;52.046;6.314;2023-03-14T04:46:12;98738.16;;;9.99;100.00
10852;BME280;5479;52.046;6.314;2023-03-14T04:48:40;98729.66;;;9.96;100.00
10852;BME280;5479;52.046;6.314;2023-03-14T04:51:08;98726.16;;;9.95;100.00
10852;BME280;5479;52.046;6.314;2023-03-14T04:53:36;98730.91;;;9.92;100.00
10852;BME280;5479;52.046;6.314;2023-03-14T04:56:05;98727.16;;;9.94;100.00
10852;BME280;5479;52.046;6.314;2023-03-14T04:58:34;98725.47;;;9.93;100.00
10852;BME280;5479;52.046;6.314;2023-03-14T05:01:02;98722.97;;;9.92;100.00
10852;BME280;5479;52.046;6.314;2023-03-14T05:03:31;98718.22;;;9.95;100.00
10852;BME280;5479;52.046;6.314;2023-03-14T05:05:59;98703.09;;;9.97;100.00
10852;BME280;5479;52.046;6.314;2023-03-14T05:08:27;98700.44;;;9.97;100.00
10852;BME280;5479;52.046;6.314;2023-03-14T05:10:56;98697.50;;;9.91;100.00
10852;BME280;5479;52.046;6.314;2023-03-14T05:13:24;98709.34;;;9.87;100.00
10852;BME280;5479;52.046;6.314;2023-03-14T05:16:03;98707.22;;;9.81;100.00
10852;BME280;5479;52.046;6.314;2023-03-14T05:18:31;98707.66;;;9.86;100.00
10852;BME280;5479;52.046;6.314;2023-03-14T05:20:59;98711.16;;;9.96;100.00
10852;BME280;5479;52.046;6.314;2023-03-14T05:23:27;98707.81;;;9.94;100.00
10852;BME280;5479;52.046;6.314;2023-03-14T05:25:55;98704.47;;;9.92;100.00
10852;BME280;5479;52.046;6.314;2023-03-14T05:28:23;98714.91;;;9.93;100.00
10852;BME280;5479;52.046;6.314;2023-03-14T05:30:51;98698.78;;;9.87;100.00
10852;BME280;5479;52.046;6.314;2023-03-14T05:33:20;98708.34;;;9.88;100.00
10852;BME280;5479;52.046;6.314;2023-03-14T05:35:48;98701.16;;;9.90;100.00
10852;BME280;5479;52.046;6.314;2023-03-14T05:38:16;98706.97;;;9.84;100.00
10852;BME280;5479;52.046;6.314;2023-03-14T05:40:45;98705.00;;;9.86;100.00
10852;BME280;5479;52.046;6.314;2023-03-14T05:43:13;98704.03;;;9.77;100.00
10852;BME280;5479;52.046;6.314;2023-03-14T05:45:42;98696.22;;;9.66;100.00
10852;BME280;5479;52.046;6.314;2023-03-14T05:48:10;98702.88;;;9.60;100.00
10852;BME280;5479;52.046;6.314;2023-03-14T05:50:40;98694.50;;;9.55;100.00
10852;BME280;5479;52.046;6.314;2023-03-14T05:53:08;98698.94;;;9.45;100.00
10852;BME280;5479;52.046;6.314;2023-03-14T05:55:36;98696.03;;;9.48;100.00
10852;BME280;5479;52.046;6.314;2023-03-14T05:58:04;98695.06;;;9.49;100.00
10852;BME280;5479;52.046;6.314;2023-03-14T06:00:32;98700.91;;;9.53;100.00
10852;BME280;5479;52.046;6.314;2023-03-14T06:03:00;98711.78;;;9.59;100.00
10852;BME280;5479;52.046;6.314;2023-03-14T06:05:28;98701.47;;;9.56;100.00
10852;BME280;5479;52.046;6.314;2023-03-14T06:07:57;98705.38;;;9.62;100.00
10852;BME280;5479;52.046;6.314;2023-03-14T06:10:25;98705.41;;;9.71;100.00
10852;BME280;5479;52.046;6.314;2023-03-14T06:12:53;98696.50;;;9.73;100.00
10852;BME280;5479;52.046;6.314;2023-03-14T06:15:21;98696.25;;;9.76;100.00
10852;BME280;5479;52.046;6.314;2023-03-14T06:17:49;98707.50;;;9.87;100.00
10852;BME280;5479;52.046;6.314;2023-03-14T06:20:17;98699.59;;;9.97;100.00
10852;BME280;5479;52.046;6.314;2023-03-14T06:22:45;98697.94;;;9.96;100.00
10852;BME280;5479;52.046;6.314;2023-03-14T06:25:14;98704.75;;;9.98;100.00
10852;BME280;5479;52.046;6.314;2023-03-14T06:27:42;98694.59;;;9.94;100.00
10852;BME280;5479;52.046;6.314;2023-03-14T06:30:11;98693.75;;;9.93;100.00
10852;BME280;5479;52.046;6.314;2023-03-14T06:32:39;98700.56;;;9.96;100.00
10852;BME280;5479;52.046;6.314;2023-03-14T06:35:07;98690.56;;;9.90;100.00
10852;BME280;5479;52.046;6.314;2023-03-14T06:37:35;98701.69;;;9.84;100.00
10852;BME280;5479;52.046;6.314;2023-03-14T06:40:04;98694.59;;;9.84;100.00
10852;BME280;5479;52.046;6.314;2023-03-14T06:42:35;98694.28;;;9.78;100.00
10852;BME280;5479;52.046;6.314;2023-03-14T06:45:05;98706.53;;;9.79;100.00
10852;BME280;5479;52.046;6.314;2023-03-14T06:47:33;98699.56;;;9.78;100.00
10852;BME280;5479;52.046;6.314;2023-03-14T06:50:01;98705.13;;;9.75;100.00
10852;BME280;5479;52.046;6.314;2023-03-14T06:52:29;98704.59;;;9.81;100.00
10852;BME280;5479;52.046;6.314;2023-03-14T06:54:57;98705.16;;;9.84;100.00
10852;BME280;5479;52.046;6.314;2023-03-14T06:57:25;98706.53;;;9.79;100.00
10852;BME280;5479;52.046;6.314;2023-03-14T06:59:54;98721.56;;;9.88;100.00
10852;BME280;5479;52.046;6.314;2023-03-14T07:02:22;98714.63;;;9.87;100.00
10852;BME280;5479;52.046;6.314;2023-03-14T07:04:50;98713.38;;;9.91;100.00
10852;BME280;5479;52.046;6.314;2023-03-14T07:07:18;98717.38;;;9.85;100.00
10852;BME280;5479;52.046;6.314;2023-03-14T07:09:46;98721.88;;;9.94;100.00
10852;BME280;5479;52.046;6.314;2023-03-14T07:12:14;98720.34;;;10.01;100.00
10852;BME280;5479;52.046;6.314;2023-03-14T07:14:42;98726.63;;;10.00;100.00
10852;BME280;5479;52.046;6.314;2023-03-14T07:17:11;98717.84;;;10.00;100.00
10852;BME280;5479;52.046;6.314;2023-03-14T07:19:39;98723.56;;;10.05;100.00
10852;BME280;5479;52.046;6.314;2023-03-14T07:22:07;98717.72;;;10.11;100.00
10852;BME280;5479;52.046;6.314;2023-03-14T07:24:35;98723.13;;;10.09;100.00
10852;BME280;5479;52.046;6.314;2023-03-14T07:27:03;98723.56;;;10.05;100.00
10852;BME280;5479;52.046;6.314;2023-03-14T07:29:31;98720.81;;;10.16;100.00
10852;BME280;5479;52.046;6.314;2023-03-14T07:31:59;98723.19;;;10.19;100.00
10852;BME280;5479;52.046;6.314;2023-03-14T07:34:28;98722.47;;;10.17;100.00
10852;BME280;5479;52.046;6.314;2023-03-14T07:36:56;98731.94;;;10.29;100.00
10852;BME280;5479;52.046;6.314;2023-03-14T07:39:25;98744.19;;;10.20;100.00
10852;BME280;5479;52.046;6.314;2023-03-14T07:41:53;98744.63;;;10.25;100.00
10852;BME280;5479;52.046;6.314;2023-03-14T07:44:20;98747.25;;;10.16;100.00
10852;BME280;5479;52.046;6.314;2023-03-14T07:46:48;98750.88;;;10.15;100.00
10852;BME280;5479;52.046;6.314;2023-03-14T07:49:17;98759.19;;;10.10;100.00
10852;BME280;5479;52.046;6.314;2023-03-14T07:51:48;98766.69;;;10.05;100.00
10852;BME280;5479;52.046;6.314;2023-03-14T07:54:16;98765.97;;;9.94;100.00
10852;BME280;5479;52.046;6.314;2023-03-14T07:56:44;98770.41;;;9.93;100.00
10852;BME280;5479;52.046;6.314;2023-03-14T07:59:12;98799.75;;;9.90;100.00
10852;BME280;5479;52.046;6.314;2023-03-14T08:01:40;98796.00;;;9.83;100.00
10852;BME280;5479;52.046;6.314;2023-03-14T08:04:08;98834.53;;;9.55;100.00
10852;BME280;5479;52.046;6.314;2023-03-14T08:06:36;98855.72;;;8.93;100.00
10852;BME280;5479;52.046;6.314;2023-03-14T08:09:06;98868.63;;;8.33;100.00
10852;BME280;5479;52.046;6.314;2023-03-14T08:11:33;98878.34;;;8.10;100.00
10852;BME280;5479;52.046;6.314;2023-03-14T08:14:01;98883.50;;;8.01;100.00
10852;BME280;5479;52.046;6.314;2023-03-14T08:16:29;98888.44;;;7.94;100.00
10852;BME280;5479;52.046;6.314;2023-03-14T08:18:57;98908.44;;;7.85;100.00
10852;BME280;5479;52.046;6.314;2023-03-14T08:21:25;98908.44;;;7.85;100.00
10852;BME280;5479;52.046;6.314;2023-03-14T08:23:53;98917.16;;;7.75;100.00
10852;BME280;5479;52.046;6.314;2023-03-14T08:26:22;98931.75;;;7.68;100.00
10852;BME280;5479;52.046;6.314;2023-03-14T08:28:50;98935.13;;;7.70;100.00
10852;BME280;5479;52.046;6.314;2023-03-14T08:31:18;98945.91;;;7.67;100.00
10852;BME280;5479;52.046;6.314;2023-03-14T08:33:46;98951.16;;;7.67;100.00
10852;BME280;5479;52.046;6.314;2023-03-14T08:36:14;98957.97;;;7.58;100.00
10852;BME280;5479;52.046;6.314;2023-03-14T08:38:42;98964.81;;;7.72;100.00
10852;BME280;5479;52.046;6.314;2023-03-14T08:41:10;98985.38;;;7.56;100.00
10852;BME280;5479;52.046;6.314;2023-03-14T08:43:39;98999.78;;;7.39;100.00
10852;BME280;5479;52.046;6.314;2023-03-14T08:46:07;98991.63;;;7.31;100.00
10852;BME280;5479;52.046;6.314;2023-03-14T08:48:35;99002.38;;;7.28;100.00
10852;BME280;5479;52.046;6.314;2023-03-14T08:51:08;99011.31;;;7.49;100.00
10852;BME280;5479;52.046;6.314;2023-03-14T08:53:37;99012.38;;;7.47;100.00
10852;BME280;5479;52.046;6.314;2023-03-14T08:56:05;99019.34;;;7.48;100.00
10852;BME280;5479;52.046;6.314;2023-03-14T08:58:36;99031.56;;;7.25;100.00
10852;BME280;5479;52.046;6.314;2023-03-14T09:01:07;99045.47;;;7.27;100.00
10852;BME280;5479;52.046;6.314;2023-03-14T09:03:36;99066.19;;;7.08;100.00
10852;BME280;5479;52.046;6.314;2023-03-14T09:06:05;99076.47;;;6.87;100.00
10852;BME280;5479;52.046;6.314;2023-03-14T09:08:34;99100.44;;;6.83;100.00
10852;BME280;5479;52.046;6.314;2023-03-14T09:11:02;99116.06;;;6.48;100.00
10852;BME280;5479;52.046;6.314;2023-03-14T09:13:31;99139.41;;;6.27;100.00
10852;BME280;5479;52.046;6.314;2023-03-14T09:15:59;99148.09;;;6.02;100.00
10852;BME280;5479;52.046;6.314;2023-03-14T09:18:29;99162.00;;;6.04;100.00
10852;BME280;5479;52.046;6.314;2023-03-14T09:20:57;99159.06;;;6.09;100.00
10852;BME280;5479;52.046;6.314;2023-03-14T09:23:25;99172.66;;;6.28;100.00
10852;BME280;5479;52.046;6.314;2023-03-14T09:25:54;99188.41;;;6.28;100.00
10852;BME280;5479;52.046;6.314;2023-03-14T09:28:22;99200.97;;;6.11;100.00
10852;BME280;5479;52.046;6.314;2023-03-14T09:30:50;99221.38;;;6.07;100.00
10852;BME280;5479;52.046;6.314;2023-03-14T09:33:18;99222.06;;;6.23;100.00
10852;BME280;5479;52.046;6.314;2023-03-14T09:35:48;99238.66;;;6.24;100.00
10852;BME280;5479;52.046;6.314;2023-03-14T09:38:16;99246.66;;;6.22;100.00
10852;BME280;5479;52.046;6.314;2023-03-14T09:40:44;99259.56;;;6.13;100.00
10852;BME280;5479;52.046;6.314;2023-03-14T09:43:13;99271.69;;;6.01;100.00
10852;BME280;5479;52.046;6.314;2023-03-14T09:45:44;99281.84;;;6.20;100.00
10852;BME280;5479;52.046;6.314;2023-03-14T09:48:16;99294.69;;;6.24;100.00
10852;BME280;5479;52.046;6.314;2023-03-14T09:50:48;99305.94;;;6.26;100.00
10852;BME280;5479;52.046;6.314;2023-03-14T09:53:19;99309.16;;;6.44;100.00
10852;BME280;5479;52.046;6.314;2023-03-14T09:55:49;99325.22;;;6.66;100.00
10852;BME280;5479;52.046;6.314;2023-03-14T09:58:20;99337.94;;;6.72;100.00
10852;BME280;5479;52.046;6.314;2023-03-14T10:00:49;99338.16;;;6.69;100.00
10852;BME280;5479;52.046;6.314;2023-03-14T10:03:22;99354.41;;;6.88;100.00
10852;BME280;5479;52.046;6.314;2023-03-14T10:05:54;99362.81;;;6.93;100.00
10852;BME280;5479;52.046;6.314;2023-03-14T10:08:23;99368.28;;;6.90;100.00
10852;BME280;5479;52.046;6.314;2023-03-14T10:10:51;99383.66;;;6.84;100.00
10852;BME280;5479;52.046;6.314;2023-03-14T10:13:24;99391.75;;;6.81;100.00
10852;BME280;5479;52.046;6.314;2023-03-14T10:15:55;99403.13;;;6.81;100.00
10852;BME280;5479;52.046;6.314;2023-03-14T10:18:29;99410.97;;;6.68;100.00
10852;BME280;5479;52.046;6.314;2023-03-14T10:21:05;99420.91;;;6.90;100.00
10852;BME280;5479;52.046;6.314;2023-03-14T10:23:34;99445.22;;;7.20;100.00
10852;BME280;5479;52.046;6.314;2023-03-14T10:26:06;99440.09;;;7.82;100.00
10852;BME280;5479;52.046;6.314;2023-03-14T10:28:39;99449.16;;;7.78;100.00
10852;BME280;5479;52.046;6.314;2023-03-14T10:31:08;99466.53;;;7.68;100.00
10852;BME280;5479;52.046;6.314;2023-03-14T10:33:37;99472.84;;;7.40;100.00
10852;BME280;5479;52.046;6.314;2023-03-14T10:36:19;99481.59;;;7.41;100.00
10852;BME280;5479;52.046;6.314;2023-03-14T10:38:49;99483.25;;;7.29;100.00
10852;BME280;5479;52.046;6.314;2023-03-14T10:41:22;99501.50;;;7.57;100.00
10852;BME280;5479;52.046;6.314;2023-03-14T10:43:53;99512.69;;;7.73;100.00
10852;BME280;5479;52.046;6.314;2023-03-14T10:46:24;99520.41;;;7.64;100.00
10852;BME280;5479;52.046;6.314;2023-03-14T10:48:53;99532.50;;;7.54;100.00
10852;BME280;5479;52.046;6.314;2023-03-14T10:51:27;99545.25;;;7.60;100.00
10852;BME280;5479;52.046;6.314;2023-03-14T10:53:58;99554.97;;;7.59;100.00
10852;BME280;5479;52.046;6.314;2023-03-14T10:56:27;99558.59;;;7.44;100.00
10852;BME280;5479;52.046;6.314;2023-03-14T10:59:00;99563.72;;;7.33;100.00
10852;BME280;5479;52.046;6.314;2023-03-14T11:01:36;99581.38;;;7.18;100.00
10852;BME280;5479;52.046;6.314;2023-03-14T11:04:15;99603.28;;;7.19;100.00
10852;BME280;5479;52.046;6.314;2023-03-14T11:06:55;99613.97;;;6.89;100.00
10852;BME280;5479;52.046;6.314;2023-03-14T11:09:29;99624.34;;;6.50;100.00
10852;BME280;5479;52.046;6.314;2023-03-14T11:12:13;99640.66;;;6.69;100.00
10852;BME280;5479;52.046;6.314;2023-03-14T11:14:53;99653.44;;;6.89;100.00
10852;BME280;5479;52.046;6.314;2023-03-14T11:17:26;99662.25;;;6.88;100.00
10852;BME280;5479;52.046;6.314;2023-03-14T11:20:09;99686.31;;;6.54;100.00
10852;BME280;5479;52.046;6.314;2023-03-14T11:22:47;99682.34;;;6.61;100.00
10852;BME280;5479;52.046;6.314;2023-03-14T11:25:21;99693.66;;;6.91;100.00
10852;BME280;5479;52.046;6.314;2023-03-14T11:28:01;99712.19;;;6.90;100.00
10852;BME280;5479;52.046;6.314;2023-03-14T11:30:40;99701.19;;;7.11;100.00
10852;BME280;5479;52.046;6.314;2023-03-14T11:33:15;99701.84;;;7.56;100.00
10852;BME280;5479;52.046;6.314;2023-03-14T11:35:47;99710.66;;;7.81;100.00
10852;BME280;5479;52.046;6.314;2023-03-14T11:38:27;99728.00;;;7.30;100.00
10852;BME280;5479;52.046;6.314;2023-03-14T11:40:57;99721.25;;;6.98;100.00
10852;BME280;5479;52.046;6.314;2023-03-14T11:43:29;99755.44;;;6.56;100.00
10852;BME280;5479;52.046;6.314;2023-03-14T11:46:03;99766.34;;;6.50;100.00
10852;BME280;5479;52.046;6.314;2023-03-14T11:48:39;99755.06;;;6.62;100.00
10852;BME280;5479;52.046;6.314;2023-03-14T11:51:15;99763.59;;;6.95;100.00
10852;BME280;5479;52.046;6.314;2023-03-14T11:53:57;99765.81;;;7.44;100.00
10852;BME280;5479;52.046;6.314;2023-03-14T11:56:32;99766.81;;;7.69;100.00
10852;BME280;5479;52.046;6.314;2023-03-14T11:59:04;99778.03;;;7.73;100.00
10852;BME280;5479;52.046;6.314;2023-03-14T12:01:47;99794.25;;;7.94;100.00
10852;BME280;5479;52.046;6.314;2023-03-14T12:04:24;99797.25;;;7.87;100.00
10852;BME280;5479;52.046;6.314;2023-03-14T12:07:02;99792.66;;;7.91;100.00
10852;BME280;5479;52.046;6.314;2023-03-14T12:09:34;99808.47;;;7.91;100.00
10852;BME280;5479;52.046;6.314;2023-03-14T12:12:04;99815.66;;;8.42;100.00
10852;BME280;5479;52.046;6.314;2023-03-14T12:14:34;99823.94;;;8.51;100.00
10852;BME280;5479;52.046;6.314;2023-03-14T12:17:05;99825.25;;;8.83;100.00
10852;BME280;5479;52.046;6.314;2023-03-14T12:19:35;99834.06;;;8.57;99.86
10852;BME280;5479;52.046;6.314;2023-03-14T12:22:21;99841.72;;;8.34;99.32
10852;BME280;5479;52.046;6.314;2023-03-14T12:24:55;99850.16;;;8.25;100.00
10852;BME280;5479;52.046;6.314;2023-03-14T12:30:41;99863.75;;;8.33;90.95
10852;BME280;5479;52.046;6.314;2023-03-14T12:33:33;99874.78;;;8.53;85.23
10852;BME280;5479;52.046;6.314;2023-03-14T12:36:12;99887.03;;;8.54;81.94
10852;BME280;5479;52.046;6.314;2023-03-14T12:38:55;99895.56;;;8.84;80.19
10852;BME280;5479;52.046;6.314;2023-03-14T12:41:35;99893.53;;;9.01;73.45
10852;BME280;5479;52.046;6.314;2023-03-14T12:44:38;99916.00;;;9.07;68.58
10852;BME280;5479;52.046;6.314;2023-03-14T12:50:15;99921.38;;;8.93;65.15
10852;BME280;5479;52.046;6.314;2023-03-14T12:53:02;99922.88;;;9.09;67.41
10852;BME280;5479;52.046;6.314;2023-03-14T12:55:37;99927.34;;;9.22;65.79
10852;BME280;5479;52.046;6.314;2023-03-14T12:58:15;99937.19;;;9.20;64.29
10852;BME280;5479;52.046;6.314;2023-03-14T13:00:54;99939.66;;;8.96;62.40
10852;BME280;5479;52.046;6.314;2023-03-14T13:03:25;99950.81;;;8.87;65.04
10852;BME280;5479;52.046;6.314;2023-03-14T13:05:57;99954.38;;;8.86;64.35
10852;BME280;5479;52.046;6.314;2023-03-14T13:08:38;99957.34;;;8.55;60.89
10852;BME280;5479;52.046;6.314;2023-03-14T13:11:09;99971.47;;;8.54;57.85
10852;BME280;5479;52.046;6.314;2023-03-14T13:13:45;99980.72;;;8.46;56.98
10852;BME280;5479;52.046;6.314;2023-03-14T13:16:17;99995.50;;;8.49;58.67
10852;BME280;5479;52.046;6.314;2023-03-14T13:18:46;99984.66;;;8.54;60.04
10852;BME280;5479;52.046;6.314;2023-03-14T13:21:17;100005.13;;;8.50;61.54
10852;BME280;5479;52.046;6.314;2023-03-14T13:23:59;100003.53;;;8.47;60.63
10852;BME280;5479;52.046;6.314;2023-03-14T13:26:34;100011.09;;;8.39;61.24
10852;BME280;5479;52.046;6.314;2023-03-14T13:29:14;100021.34;;;8.44;61.84
10852;BME280;5479;52.046;6.314;2023-03-14T13:31:43;100015.75;;;8.48;62.62
10852;BME280;5479;52.046;6.314;2023-03-14T13:34:12;100034.63;;;8.28;60.97
10852;BME280;5479;52.046;6.314;2023-03-14T13:36:40;100049.84;;;8.09;58.76